Bradley, Illinois
Current Conditions -  °F | °C
As of 3:15 PM on Sunday 23 Nov 2014 (Local Time) from KIKK Reporting Station
Drizzle Drizzle  
Wind Chill: 51°   Ceiling: 600
Heat Index: 51°   Visibility: 7mi
Dew Point: 50°   Wind: 12mph
Humidity: 96%   Direction: 140°SE
Pressure: 29.49"   Gusts: NA
Location:  41.14°N, 87.86°W
Report Text: KIKK 232115Z AUTO 14010KT 7SM DZ OVC006 11/10 A2949 RMK AO2 P0001 T01080102
Loading
Personal Weather Stations






























Interactive Weather Map New forecast layout! Learn more

10-Day Weather Forecast

Advertisements
Track Severe Weather on mobile